Time;durP1;ratioP1;P1;durP2;ratioP2;P2;SDS_P1;SDS_P2;PMS_P1;PMS_P2;Temp;Humidity;BMP_temperature;BMP_pressure;BME280_temperature;BME280_humidity;BME280_pressure;Samples;Min_cycle;Max_cycle;Signal;HPM_P1;HPM_P2
2022/04/05 00:02:11;;;;;;;10.40;2.33;;;7.40;99.90;;;;;;5101704;28;20047;-76
2022/04/05 00:04:37;;;;;;;8.30;2.08;;;7.50;99.90;;;;;;5106682;28;20119;-76
2022/04/05 00:07:03;;;;;;;6.47;1.27;;;7.40;99.90;;;;;;5106731;27;20124;-76
2022/04/05 00:09:28;;;;;;;7.07;1.33;;;7.40;99.90;;;;;;5098961;27;20490;-76
2022/04/05 00:11:54;;;;;;;13.63;2.95;;;7.30;99.90;;;;;;5104208;28;20090;-76
2022/04/05 00:14:20;;;;;;;10.25;1.23;;;7.40;99.90;;;;;;5119321;27;20082;-76
2022/04/05 00:16:45;;;;;;;13.25;2.65;;;7.30;99.90;;;;;;5091520;28;20502;-76
2022/04/05 00:19:11;;;;;;;14.38;1.92;;;7.30;99.90;;;;;;5091323;28;20450;-76
2022/04/05 00:21:37;;;;;;;19.20;2.30;;;7.30;99.90;;;;;;5101114;28;20052;-76
2022/04/05 00:24:02;;;;;;;9.32;2.15;;;7.30;99.90;;;;;;5101683;27;20520;-76
2022/04/05 00:26:28;;;;;;;6.88;1.38;;;7.30;99.90;;;;;;5095052;28;20094;-76
2022/04/05 00:28:53;;;;;;;3.15;1.08;;;7.30;99.90;;;;;;5110803;27;20115;-77
2022/04/05 00:31:19;;;;;;;3.63;1.65;;;7.20;99.90;;;;;;5095275;28;20418;-76
2022/04/05 00:33:45;;;;;;;4.47;1.40;;;7.30;99.90;;;;;;5091766;28;20470;-76
2022/04/05 00:36:10;;;;;;;10.80;2.33;;;7.20;99.90;;;;;;5089378;28;20379;-76
2022/04/05 00:38:36;;;;;;;4.53;1.23;;;7.20;99.90;;;;;;5089586;28;20400;-76
2022/04/05 00:41:01;;;;;;;8.88;1.63;;;7.20;99.90;;;;;;5094315;28;20043;-76
2022/04/05 00:43:27;;;;;;;8.45;1.38;;;7.20;99.90;;;;;;5111172;28;20071;-76
2022/04/05 00:45:54;;;;;;;7.05;3.33;;;7.20;99.90;;;;;;5113237;27;20044;-76
2022/04/05 00:48:30;;;;;;;10.00;2.08;;;7.20;99.90;;;;;;5100142;28;20044;-75
2022/04/05 00:50:56;;;;;;;6.85;2.13;;;7.10;99.90;;;;;;5102255;27;20515;-76
2022/04/05 00:53:26;;;;;;;10.48;2.35;;;7.20;99.90;;;;;;5095425;27;20040;-76
2022/04/05 00:55:54;;;;;;;14.02;3.55;;;7.20;99.90;;;;;;5090928;28;20044;-76
2022/04/05 00:58:23;;;;;;;7.40;1.77;;;7.20;99.90;;;;;;5090730;28;20046;-76
2022/04/05 01:00:49;;;;;;;8.97;1.37;;;7.20;99.90;;;;;;5108797;28;20048;-77
2022/04/05 01:03:16;;;;;;;6.55;1.92;;;7.20;99.90;;;;;;5101549;28;20836;-76
2022/04/05 01:05:43;;;;;;;4.47;1.65;;;7.20;99.90;;;;;;5094754;28;20040;-76
2022/04/05 01:08:11;;;;;;;5.97;2.10;;;7.20;99.90;;;;;;5110391;28;20043;-76
2022/04/05 01:10:38;;;;;;;8.80;2.13;;;7.10;99.90;;;;;;5109593;28;20119;-76
2022/04/05 01:13:03;;;;;;;7.40;1.58;;;7.10;99.90;;;;;;5105681;28;20382;-76
2022/04/05 01:15:29;;;;;;;10.25;1.63;;;7.20;99.90;;;;;;5109399;28;20096;-77
2022/04/05 01:17:55;;;;;;;7.53;2.03;;;7.10;99.90;;;;;;5109963;28;20031;-76
2022/04/05 01:20:21;;;;;;;9.07;1.83;;;7.20;99.90;;;;;;5104336;28;20032;-76
2022/04/05 01:22:51;;;;;;;9.50;1.88;;;7.20;99.90;;;;;;5093258;28;20039;-76
2022/04/05 01:25:18;;;;;;;9.55;1.42;;;7.20;99.90;;;;;;5105722;27;20044;-76
2022/04/05 01:27:43;;;;;;;13.40;2.30;;;7.20;99.90;;;;;;5101552;27;20070;-76
2022/04/05 01:30:10;;;;;;;14.00;2.63;;;7.20;99.90;;;;;;5108693;27;21084;-76
2022/04/05 01:32:37;;;;;;;4.32;1.33;;;7.20;99.90;;;;;;5108685;27;20050;-76
2022/04/05 01:35:04;;;;;;;6.53;1.48;;;7.20;99.90;;;;;;5099293;27;20086;-75
2022/04/05 01:37:30;;;;;;;9.35;1.92;;;7.20;99.90;;;;;;5128962;27;20164;-76
2022/04/05 01:39:56;;;;;;;12.05;1.55;;;7.20;99.90;;;;;;5131330;27;20042;-76
2022/04/05 01:42:21;;;;;;;8.00;1.98;;;7.20;99.90;;;;;;5109920;27;20035;-76
2022/04/05 01:44:47;;;;;;;8.00;1.40;;;7.20;99.90;;;;;;5089386;28;20062;-76
2022/04/05 01:47:15;;;;;;;9.70;2.45;;;7.20;99.90;;;;;;5089670;28;20036;-76
2022/04/05 01:49:42;;;;;;;12.88;1.98;;;7.20;99.90;;;;;;5089680;28;20040;-76
2022/04/05 01:52:09;;;;;;;9.77;1.80;;;7.20;99.90;;;;;;5109394;27;20436;-76
2022/04/05 01:54:35;;;;;;;9.52;2.60;;;7.30;99.90;;;;;;5116598;27;20034;-76
2022/04/05 01:57:01;;;;;;;13.00;3.25;;;7.20;99.90;;;;;;5131345;27;20043;-76
2022/04/05 01:59:29;;;;;;;7.93;2.55;;;7.20;99.90;;;;;;5124759;27;20038;-76
2022/04/05 02:01:55;;;;;;;13.38;2.28;;;7.30;99.90;;;;;;5101433;28;20039;-76
2022/04/05 02:04:21;;;;;;;10.38;3.15;;;7.20;99.90;;;;;;5109841;28;20036;-76
2022/04/05 02:06:47;;;;;;;13.32;2.75;;;7.20;99.90;;;;;;5101874;28;20051;-75
2022/04/05 02:09:14;;;;;;;10.02;2.05;;;7.20;99.90;;;;;;5094002;28;20036;-75
2022/04/05 02:11:44;;;;;;;16.15;3.35;;;7.20;99.90;;;;;;5101431;28;20040;-76
2022/04/05 02:14:11;;;;;;;12.15;2.63;;;7.20;99.90;;;;;;5105286;28;20042;-76
2022/04/05 02:16:37;;;;;;;11.57;2.92;;;7.30;99.90;;;;;;5102809;28;20040;-76
2022/04/05 02:19:03;;;;;;;10.57;3.08;;;7.30;99.90;;;;;;5107286;28;20044;-76
2022/04/05 02:21:28;;;;;;;10.43;2.13;;;7.30;99.90;;;;;;5108635;28;20082;-75
2022/04/05 02:23:54;;;;;;;18.98;3.47;;;7.30;99.90;;;;;;5112761;27;20103;-76
2022/04/05 02:26:20;;;;;;;24.80;3.58;;;7.20;99.90;;;;;;5097585;27;20035;-76
2022/04/05 02:28:47;;;;;;;10.70;3.70;;;7.30;99.90;;;;;;5113750;27;20089;-75
2022/04/05 02:31:13;;;;;;;10.43;2.78;;;7.30;99.90;;;;;;5083437;28;20067;-76
2022/04/05 02:33:38;;;;;;;17.38;3.65;;;7.30;99.90;;;;;;5102247;28;20071;-75
2022/04/05 02:36:04;;;;;;;14.65;2.85;;;7.30;99.90;;;;;;5103027;28;20074;-76
2022/04/05 02:38:30;;;;;;;23.67;3.55;;;7.30;99.90;;;;;;5093511;28;20051;-76
2022/04/05 02:40:59;;;;;;;13.43;3.45;;;7.40;99.90;;;;;;5101613;28;20505;-76
2022/04/05 02:43:25;;;;;;;10.65;2.85;;;7.40;99.90;;;;;;5110681;28;20138;-76
2022/04/05 02:45:52;;;;;;;13.23;3.00;;;7.30;99.90;;;;;;5098092;28;20043;-76
2022/04/05 02:48:17;;;;;;;11.85;2.63;;;7.30;99.90;;;;;;5113377;28;20047;-76
2022/04/05 02:50:43;;;;;;;12.23;2.80;;;7.30;99.90;;;;;;5112855;28;20040;-76
2022/04/05 02:53:08;;;;;;;16.00;4.35;;;7.40;99.90;;;;;;5094285;28;20044;-75
2022/04/05 02:55:34;;;;;;;12.25;3.72;;;7.40;99.90;;;;;;5092877;28;20052;-76
2022/04/05 02:58:00;;;;;;;13.10;2.92;;;7.40;99.90;;;;;;5099761;27;20039;-76
2022/04/05 03:00:27;;;;;;;13.30;3.20;;;7.30;99.90;;;;;;5111736;28;20036;-76
2022/04/05 03:02:53;;;;;;;22.35;3.60;;;7.40;99.90;;;;;;5111408;28;20044;-76
2022/04/05 03:05:21;;;;;;;10.80;2.10;;;7.40;99.90;;;;;;5110804;27;20035;-76
2022/04/05 03:07:47;;;;;;;14.10;3.88;;;7.40;99.90;;;;;;5091789;28;20047;-76
2022/04/05 03:10:12;;;;;;;14.05;1.90;;;7.30;99.90;;;;;;5092843;28;20090;-76
2022/04/05 03:12:38;;;;;;;25.67;3.85;;;7.30;99.90;;;;;;5092569;28;20035;-76
2022/04/05 03:15:06;;;;;;;23.52;3.15;;;7.40;99.90;;;;;;5108019;27;20039;-76
2022/04/05 03:17:32;;;;;;;13.18;3.33;;;7.30;99.90;;;;;;5110876;27;20043;-76
2022/04/05 03:20:03;;;;;;;14.48;3.78;;;7.30;99.90;;;;;;5109094;27;20083;-76
2022/04/05 03:22:29;;;;;;;12.23;3.15;;;7.40;99.90;;;;;;5100147;28;20415;-77
2022/04/05 03:24:55;;;;;;;16.60;2.30;;;7.30;99.90;;;;;;5091735;28;20056;-76
2022/04/05 03:27:20;;;;;;;34.25;4.82;;;7.40;99.90;;;;;;5094242;28;20135;-76
2022/04/05 03:29:46;;;;;;;14.18;3.00;;;7.30;99.90;;;;;;5099099;27;20121;-77
2022/04/05 03:32:12;;;;;;;18.25;3.05;;;7.40;99.90;;;;;;5110365;27;20127;-76
2022/04/05 03:34:40;;;;;;;24.90;4.18;;;7.30;99.90;;;;;;5110994;28;20043;-76
2022/04/05 03:37:07;;;;;;;31.48;4.32;;;7.40;99.90;;;;;;5113195;27;20195;-78
2022/04/05 03:39:33;;;;;;;26.13;3.20;;;7.40;99.90;;;;;;5111551;28;20047;-77
2022/04/05 03:41:59;;;;;;;9.02;2.83;;;7.30;99.90;;;;;;5105538;28;20077;-77
2022/04/05 03:44:25;;;;;;;13.07;3.70;;;7.40;99.90;;;;;;5095057;28;20718;-76
2022/04/05 03:46:52;;;;;;;15.38;2.55;;;7.40;99.90;;;;;;5110077;28;20035;-77
2022/04/05 03:49:18;;;;;;;10.73;2.70;;;7.40;99.90;;;;;;5109359;27;20039;-77
2022/04/05 03:51:44;;;;;;;18.05;4.53;;;7.30;99.90;;;;;;5132553;27;20065;-77
2022/04/05 03:54:09;;;;;;;15.88;3.78;;;7.30;99.90;;;;;;5127571;27;20035;-77
2022/04/05 03:56:35;;;;;;;12.65;3.15;;;7.30;99.90;;;;;;5089669;28;20496;-77
2022/04/05 03:59:01;;;;;;;30.48;3.15;;;7.30;99.90;;;;;;5097253;28;20051;-77
2022/04/05 04:01:26;;;;;;;10.63;2.63;;;7.30;99.90;;;;;;5109806;28;20079;-77
2022/04/05 04:03:52;;;;;;;16.17;2.95;;;7.30;99.90;;;;;;5111430;28;20035;-77
2022/04/05 04:06:17;;;;;;;13.85;2.53;;;7.30;99.90;;;;;;5110834;28;20040;-77
2022/04/05 04:08:43;;;;;;;14.13;2.83;;;7.30;99.90;;;;;;5111430;28;20048;-77
2022/04/05 04:11:08;;;;;;;17.15;3.45;;;7.30;99.90;;;;;;5108307;28;20071;-76
2022/04/05 04:13:34;;;;;;;12.73;4.53;;;7.20;99.90;;;;;;5110953;28;20035;-76
2022/04/05 04:16:00;;;;;;;10.85;3.05;;;7.30;99.90;;;;;;5107649;28;20052;-77
2022/04/05 04:18:26;;;;;;;15.45;2.80;;;7.30;99.90;;;;;;5098270;28;20040;-76
2022/04/05 04:20:52;;;;;;;9.90;2.25;;;7.30;99.90;;;;;;5097400;28;20688;-77
2022/04/05 04:23:18;;;;;;;45.08;5.13;;;7.30;99.90;;;;;;5092778;28;20048;-77
2022/04/05 04:25:43;;;;;;;8.65;2.33;;;7.30;99.90;;;;;;5061506;27;1041449;-77
2022/04/05 04:28:10;;;;;;;10.75;2.60;;;7.30;99.90;;;;;;5101184;27;20079;-75
2022/04/05 04:30:37;;;;;;;13.38;3.17;;;7.30;99.90;;;;;;5102210;27;20040;-76
2022/04/05 04:33:04;;;;;;;11.48;2.38;;;7.30;99.90;;;;;;5092123;28;20052;-76
2022/04/05 04:35:30;;;;;;;15.38;2.80;;;7.20;99.90;;;;;;5106427;28;20389;-76
2022/04/05 04:37:57;;;;;;;16.77;4.10;;;7.30;99.90;;;;;;5098928;28;20050;-76
2022/04/05 04:40:23;;;;;;;9.82;2.78;;;7.30;99.90;;;;;;5111013;28;20044;-76
2022/04/05 04:42:49;;;;;;;9.45;2.05;;;7.30;99.90;;;;;;5111346;28;20055;-76
2022/04/05 04:45:14;;;;;;;16.05;4.43;;;7.30;99.90;;;;;;5108641;28;20031;-76
2022/04/05 04:47:40;;;;;;;16.50;3.28;;;7.20;99.90;;;;;;5090236;28;20100;-76
2022/04/05 04:50:08;;;;;;;21.63;5.07;;;7.30;99.90;;;;;;5100302;28;20038;-76
2022/04/05 04:52:35;;;;;;;14.93;2.30;;;7.30;99.90;;;;;;5111033;28;20043;-78
2022/04/05 04:55:00;;;;;;;30.92;3.65;;;7.30;99.90;;;;;;5106725;28;20048;-80
2022/04/05 04:57:26;;;;;;;10.88;2.45;;;7.30;99.90;;;;;;5110509;28;20038;-77
2022/04/05 04:59:54;;;;;;;10.60;2.72;;;7.20;99.90;;;;;;5110907;28;20105;-76
2022/04/05 05:02:22;;;;;;;16.70;3.63;;;7.20;99.90;;;;;;5107151;27;20043;-76
2022/04/05 05:04:49;;;;;;;20.00;3.47;;;7.20;99.90;;;;;;5102840;27;20120;-76
2022/04/05 05:07:15;;;;;;;12.50;3.53;;;7.20;99.90;;;;;;5103834;28;20510;-75
2022/04/05 05:09:41;;;;;;;6.68;2.50;;;7.20;99.90;;;;;;5098179;27;20032;-76
2022/04/05 05:12:10;;;;;;;12.68;2.35;;;7.20;99.90;;;;;;5100234;28;20040;-76
2022/04/05 05:14:36;;;;;;;14.25;4.13;;;7.20;99.90;;;;;;5106022;28;20082;-76
2022/04/05 05:17:01;;;;;;;11.75;2.22;;;7.20;99.90;;;;;;5101584;28;20046;-76
2022/04/05 05:19:27;;;;;;;14.63;2.97;;;7.20;99.90;;;;;;5090360;28;20048;-76
2022/04/05 05:21:52;;;;;;;16.10;2.80;;;7.10;99.90;;;;;;5102697;28;20075;-76
2022/04/05 05:24:18;;;;;;;12.10;3.33;;;7.20;99.90;;;;;;5096027;28;20052;-77
2022/04/05 05:26:44;;;;;;;8.80;2.53;;;7.20;99.90;;;;;;5089640;28;20048;-76
2022/04/05 05:29:09;;;;;;;13.82;2.85;;;7.20;99.90;;;;;;5105099;28;20043;-77
2022/04/05 05:31:35;;;;;;;11.02;2.53;;;7.20;99.90;;;;;;5102478;27;20044;-76
2022/04/05 05:34:00;;;;;;;8.57;2.95;;;7.20;99.90;;;;;;5105391;28;20043;-76
2022/04/05 05:36:26;;;;;;;15.15;2.83;;;7.20;99.90;;;;;;5111780;27;20431;-77
2022/04/05 05:38:52;;;;;;;6.22;2.35;;;7.10;99.90;;;;;;5110006;27;20585;-76
2022/04/05 05:41:17;;;;;;;5.10;1.95;;;7.20;99.90;;;;;;5118705;27;20047;-76
2022/04/05 05:43:45;;;;;;;8.70;2.50;;;7.20;99.90;;;;;;5129554;27;20131;-76
2022/04/05 05:46:12;;;;;;;6.43;1.83;;;7.20;99.90;;;;;;5126760;27;20371;-76
2022/04/05 05:48:38;;;;;;;8.82;2.03;;;7.20;99.90;;;;;;5099283;27;20043;-75
2022/04/05 05:51:05;;;;;;;11.77;2.03;;;7.10;99.90;;;;;;5119622;27;20051;-76
2022/04/05 05:53:31;;;;;;;25.75;3.63;;;7.10;99.90;;;;;;5115921;27;20050;-76
2022/04/05 05:55:57;;;;;;;12.35;2.90;;;7.20;99.90;;;;;;5089540;28;20122;-76
2022/04/05 05:58:22;;;;;;;7.40;2.47;;;7.20;99.90;;;;;;5090393;28;20123;-76
2022/04/05 06:00:48;;;;;;;8.65;2.28;;;7.20;99.90;;;;;;5088810;28;20039;-76
2022/04/05 06:03:13;;;;;;;8.07;2.45;;;7.20;99.90;;;;;;5093877;28;20214;-75
2022/04/05 06:05:39;;;;;;;9.32;2.10;;;7.20;99.90;;;;;;5109740;28;20051;-76
2022/04/05 06:08:05;;;;;;;6.82;2.05;;;7.30;99.90;;;;;;5104296;28;20127;-76
2022/04/05 06:10:31;;;;;;;7.32;2.33;;;7.30;99.90;;;;;;5109073;28;20393;-75
2022/04/05 06:12:57;;;;;;;11.25;2.40;;;7.30;99.90;;;;;;5108827;28;20042;-76
2022/04/05 06:15:25;;;;;;;17.70;4.18;;;7.30;99.90;;;;;;5098465;28;20050;-76
2022/04/05 06:17:51;;;;;;;20.27;4.03;;;7.30;99.90;;;;;;5089483;28;20097;-76
2022/04/05 06:20:20;;;;;;;19.25;4.40;;;7.30;99.90;;;;;;5094125;28;20035;-76
2022/04/05 06:22:52;;;;;;;14.88;2.92;;;7.40;99.90;;;;;;5097376;28;20043;-77
2022/04/05 06:25:20;;;;;;;11.70;2.97;;;7.40;99.90;;;;;;5104800;28;20051;-76
2022/04/05 06:27:47;;;;;;;8.57;2.60;;;7.40;99.90;;;;;;5090055;28;20055;-76
2022/04/05 06:30:14;;;;;;;6.80;2.28;;;7.40;99.90;;;;;;5102288;28;20092;-77
2022/04/05 06:32:40;;;;;;;11.05;3.75;;;7.40;99.90;;;;;;5102787;28;20055;-77
2022/04/05 06:35:07;;;;;;;9.02;3.17;;;7.40;99.90;;;;;;5104951;28;20044;-77
2022/04/05 06:37:35;;;;;;;21.00;4.82;;;7.60;99.90;;;;;;5093447;28;20079;-76
2022/04/05 06:40:01;;;;;;;7.32;2.55;;;7.60;99.90;;;;;;5107804;28;20058;-77
2022/04/05 06:42:29;;;;;;;9.52;2.80;;;7.60;99.90;;;;;;5093511;27;20436;-77
2022/04/05 06:44:54;;;;;;;7.57;2.15;;;7.70;99.90;;;;;;5091205;28;20037;-76
2022/04/05 06:47:20;;;;;;;3.75;2.33;;;7.60;99.90;;;;;;5109940;28;20107;-79
2022/04/05 06:49:46;;;;;;;8.38;1.90;;;7.70;99.90;;;;;;5109377;27;20126;-81
2022/04/05 06:52:12;;;;;;;12.73;3.17;;;7.70;99.90;;;;;;5105239;27;20047;-81
2022/04/05 06:54:38;;;;;;;10.73;2.28;;;7.70;99.90;;;;;;5107220;28;20062;-80
2022/04/05 06:57:03;;;;;;;9.07;1.75;;;7.70;99.90;;;;;;5095667;28;20044;-77
2022/04/05 06:59:29;;;;;;;13.05;3.65;;;7.70;99.90;;;;;;5106990;28;20126;-81
2022/04/05 07:01:55;;;;;;;8.77;2.28;;;7.70;99.90;;;;;;5107357;28;20039;-80
2022/04/05 07:04:21;;;;;;;10.05;2.67;;;7.70;99.90;;;;;;5094752;28;20043;-81
2022/04/05 07:06:46;;;;;;;11.45;1.92;;;7.80;99.90;;;;;;5106631;28;20051;-80
2022/04/05 07:09:12;;;;;;;6.55;1.50;;;7.70;99.90;;;;;;5109946;27;20100;-80
2022/04/05 07:11:37;;;;;;;9.18;2.92;;;7.70;99.90;;;;;;5101772;28;20405;-80
2022/04/05 07:14:03;;;;;;;12.07;3.60;;;7.70;99.90;;;;;;5103109;28;20035;-80
2022/04/05 07:16:29;;;;;;;12.60;2.53;;;7.80;99.90;;;;;;5110466;27;20410;-80
2022/04/05 07:18:55;;;;;;;7.68;2.50;;;7.90;99.90;;;;;;5104010;28;20447;-79
2022/04/05 07:21:23;;;;;;;10.25;2.92;;;7.90;99.90;;;;;;5110640;27;20123;-80
2022/04/05 07:23:49;;;;;;;7.25;2.28;;;7.90;99.90;;;;;;5103714;28;20086;-80
2022/04/05 07:26:15;;;;;;;6.03;2.10;;;7.90;99.90;;;;;;5092713;28;20044;-80
2022/04/05 07:28:41;;;;;;;7.13;1.50;;;8.00;99.90;;;;;;5101252;28;20092;-80
2022/04/05 07:31:06;;;;;;;7.60;2.38;;;7.80;99.90;;;;;;5111899;27;20031;-80
2022/04/05 07:33:32;;;;;;;5.38;1.92;;;7.70;99.90;;;;;;5109954;27;20047;-80
2022/04/05 07:35:58;;;;;;;10.40;1.85;;;7.70;99.90;;;;;;5107398;28;20046;-80
2022/04/05 07:38:26;;;;;;;9.50;2.38;;;7.80;99.90;;;;;;5106238;27;20055;-77
2022/04/05 07:40:53;;;;;;;5.47;1.92;;;7.80;99.90;;;;;;5110987;27;20047;-80
2022/04/05 07:43:23;;;;;;;7.30;2.28;;;7.90;99.90;;;;;;5115569;27;20039;-79
2022/04/05 07:45:50;;;;;;;5.50;1.90;;;7.80;99.90;;;;;;5132117;27;20058;-78
2022/04/05 07:48:17;;;;;;;7.88;1.42;;;7.90;99.90;;;;;;5093679;27;20108;-77
2022/04/05 07:50:43;;;;;;;3.83;1.30;;;7.80;99.90;;;;;;5090394;28;20051;-78
2022/04/05 07:53:08;;;;;;;5.20;1.67;;;8.00;99.90;;;;;;5091732;28;20416;-77
2022/04/05 07:55:34;;;;;;;8.38;1.92;;;7.90;99.90;;;;;;5101726;28;20166;-77
2022/04/05 07:57:59;;;;;;;5.32;2.35;;;7.90;99.90;;;;;;5101350;28;20054;-77
2022/04/05 08:00:27;;;;;;;7.28;2.60;;;8.00;99.90;;;;;;5102818;28;20039;-77
2022/04/05 08:02:52;;;;;;;7.38;1.52;;;8.20;99.90;;;;;;5078602;28;20133;-78
2022/04/05 08:05:19;;;;;;;8.48;1.42;;;8.10;99.90;;;;;;5101907;28;20093;-80
2022/04/05 08:07:46;;;;;;;10.63;3.17;;;8.30;99.90;;;;;;5091034;28;20047;-80
2022/04/05 08:10:13;;;;;;;5.35;2.08;;;8.20;99.90;;;;;;5095774;28;20516;-79
2022/04/05 08:12:44;;;;;;;13.15;2.10;;;8.30;99.90;;;;;;5112537;27;20035;-77
2022/04/05 08:15:15;;;;;;;4.57;2.33;;;8.30;99.90;;;;;;5105100;27;20114;-78
2022/04/05 08:17:40;;;;;;;9.20;1.83;;;8.40;99.90;;;;;;5101055;27;20051;-78
2022/04/05 08:20:07;;;;;;;8.02;2.03;;;8.50;99.90;;;;;;5111955;28;20041;-80
2022/04/05 08:22:32;;;;;;;7.13;1.98;;;8.30;99.90;;;;;;5098479;28;20603;-79
2022/04/05 08:24:59;;;;;;;8.50;2.03;;;8.50;99.90;;;;;;5111159;28;20063;-78
2022/04/05 08:27:24;;;;;;;9.88;2.42;;;8.50;99.90;;;;;;5099790;27;20043;-79
2022/04/05 08:29:50;;;;;;;5.15;2.08;;;8.50;99.90;;;;;;5110038;28;20043;-79
2022/04/05 08:32:16;;;;;;;15.18;3.10;;;8.60;99.90;;;;;;5105055;28;20036;-79
2022/04/05 08:34:42;;;;;;;9.57;1.65;;;8.60;99.90;;;;;;5111411;27;20044;-80
2022/04/05 08:37:11;;;;;;;6.63;1.83;;;8.60;99.90;;;;;;5108490;28;20032;-79
2022/04/05 08:39:38;;;;;;;5.68;1.98;;;8.60;99.90;;;;;;5096922;27;20038;-79
2022/04/05 08:42:05;;;;;;;6.57;1.50;;;8.60;99.90;;;;;;5107249;27;20044;-79
2022/04/05 08:44:31;;;;;;;5.93;2.17;;;8.50;99.90;;;;;;5106607;28;20616;-79
2022/04/05 08:47:00;;;;;;;8.27;1.95;;;8.50;99.90;;;;;;5106336;27;20047;-79
2022/04/05 08:49:28;;;;;;;6.05;2.33;;;8.60;99.90;;;;;;5107202;27;20032;-80
2022/04/05 08:51:53;;;;;;;2.40;0.80;;;8.50;99.90;;;;;;5094404;27;21378;-86
2022/04/05 08:54:19;;;;;;;5.03;1.55;;;8.70;99.90;;;;;;5097123;27;20075;-82
2022/04/05 08:56:46;;;;;;;3.65;0.73;;;8.60;99.90;;;;;;5098879;28;20042;-83
2022/04/05 08:59:11;;;;;;;4.50;1.13;;;8.60;99.90;;;;;;5104103;28;20089;-82
2022/04/05 09:01:38;;;;;;;7.82;2.40;;;8.70;99.90;;;;;;5093037;28;20048;-82
2022/04/05 09:04:04;;;;;;;7.10;1.70;;;8.60;99.90;;;;;;5104377;27;20115;-82
2022/04/05 09:06:32;;;;;;;6.90;1.42;;;8.70;99.90;;;;;;5093835;28;20040;-82
2022/04/05 09:09:11;;;;;;;3.78;1.48;;;8.50;99.90;;;;;;5098167;28;20406;-79
2022/04/05 09:11:45;;;;;;;2.47;1.02;;;8.70;99.90;;;;;;5098620;28;20047;-81
2022/04/05 09:14:11;;;;;;;3.83;1.20;;;8.60;99.90;;;;;;5101707;27;20036;-80
2022/04/05 09:16:38;;;;;;;6.80;2.15;;;8.60;99.90;;;;;;5097323;28;20039;-81
2022/04/05 09:19:15;;;;;;;6.60;1.40;;;8.60;99.90;;;;;;5096608;28;20032;-78
2022/04/05 09:21:56;;;;;;;2.70;0.88;;;8.90;99.90;;;;;;5100184;28;20100;-81
2022/04/05 09:24:43;;;;;;;3.17;1.17;;;9.00;99.90;;;;;;5101384;28;20063;-80
2022/04/05 09:27:09;;;;;;;1.27;0.95;;;9.00;99.90;;;;;;5098806;28;20131;-79
2022/04/05 09:29:39;;;;;;;4.47;1.80;;;9.10;99.90;;;;;;5101236;28;20185;-78
2022/04/05 09:32:05;;;;;;;2.55;0.70;;;9.00;99.90;;;;;;5094975;28;21659;-80
2022/04/05 09:34:31;;;;;;;3.85;1.42;;;9.30;99.90;;;;;;5100079;28;20074;-80
2022/04/05 09:36:56;;;;;;;2.92;0.55;;;9.20;99.90;;;;;;5103244;28;20054;-80
2022/04/05 09:39:23;;;;;;;5.35;1.10;;;9.20;99.90;;;;;;5101167;28;20096;-81
2022/04/05 09:42:01;;;;;;;1.67;0.57;;;9.10;99.90;;;;;;5105570;28;20036;-80
2022/04/05 09:44:35;;;;;;;1.52;0.93;;;9.00;99.90;;;;;;5104788;28;20113;-81
2022/04/05 09:47:10;;;;;;;2.33;0.50;;;9.00;99.90;;;;;;5085022;28;20080;-82
2022/04/05 09:49:41;;;;;;;0.10;0.10;;;9.10;99.90;;;;;;5097285;28;20520;-80
2022/04/05 09:52:26;;;;;;;0.73;0.50;;;9.00;99.90;;;;;;5096023;28;20425;-80
2022/04/05 09:54:52;;;;;;;1.75;0.70;;;9.00;99.90;;;;;;5095936;28;20051;-80
2022/04/05 09:57:30;;;;;;;1.13;0.60;;;9.20;99.90;;;;;;5095386;28;20047;-83
2022/04/05 10:00:10;;;;;;;1.63;0.40;;;9.20;99.90;;;;;;5077104;28;20123;-83
2022/04/05 10:02:36;;;;;;;1.38;0.40;;;9.30;99.90;;;;;;5102153;27;20050;-85
2022/04/05 10:05:09;;;;;;;0.80;0.70;;;9.40;99.90;;;;;;5103972;27;20027;-84
2022/04/05 10:07:36;;;;;;;0.50;0.40;;;9.60;99.90;;;;;;5096802;28;20121;-83
2022/04/05 10:10:07;;;;;;;2.10;0.50;;;9.70;99.90;;;;;;5096051;28;20075;-85
2022/04/05 10:12:32;;;;;;;1.95;0.75;;;9.80;99.90;;;;;;5103356;28;20101;-84
2022/04/05 10:15:00;;;;;;;1.55;0.35;;;9.40;99.90;;;;;;5091167;27;20047;-84
2022/04/05 10:17:28;;;;;;;0.50;0.50;;;9.50;99.90;;;;;;5105406;27;20048;-84
2022/04/05 10:19:56;;;;;;;1.30;0.80;;;9.70;99.90;;;;;;5098052;28;20048;-86
2022/04/05 10:22:22;;;;;;;0.40;0.30;;;9.70;99.90;;;;;;5101094;27;20039;-83
2022/04/05 10:24:54;;;;;;;0.43;0.43;;;9.80;99.90;;;;;;5104758;28;20036;-82
2022/04/05 10:27:32;;;;;;;2.08;0.82;;;9.60;99.90;;;;;;5096677;28;20052;-83
2022/04/05 10:30:27;;;;;;;2.25;0.73;;;9.60;99.90;;;;;;5099159;28;20673;-83
2022/04/05 10:33:13;;;;;;;2.25;0.60;;;9.60;99.90;;;;;;5099226;28;20048;-82
2022/04/05 10:35:54;;;;;;;0.82;0.50;;;9.70;99.90;;;;;;5111183;28;20052;-79
2022/04/05 10:38:20;;;;;;;0.60;0.60;;;9.60;99.90;;;;;;5114071;28;20035;-82
2022/04/05 10:41:16;;;;;;;1.13;0.80;;;10.00;99.90;;;;;;5114106;28;20032;-81
2022/04/05 10:43:43;;;;;;;0.60;0.60;;;10.30;99.90;;;;;;5104124;28;20084;-80
2022/04/05 10:46:10;;;;;;;2.75;0.90;;;10.30;99.90;;;;;;5105674;27;20102;-82
2022/04/05 10:48:37;;;;;;;3.30;1.30;;;10.30;99.90;;;;;;5117866;28;20062;-82
2022/04/05 10:51:03;;;;;;;1.38;1.02;;;10.30;99.90;;;;;;5122374;28;20027;-81
2022/04/05 10:54:17;;;;;;;1.48;1.08;;;10.40;99.90;;;;;;5128937;27;20047;-84
2022/04/05 10:56:27;;;;;;;1.17;0.90;;;10.70;99.90;;;;;;5104500;27;20119;-84
2022/04/05 10:58:53;;;;;;;1.25;1.10;;;10.90;99.90;;;;;;5122137;28;20050;-85
2022/04/05 11:01:35;;;;;;;1.25;0.90;;;10.80;99.90;;;;;;5077323;28;20044;-84
2022/04/05 11:04:17;;;;;;;1.65;0.88;;;10.70;99.90;;;;;;5107129;27;20047;-82
2022/04/05 11:06:58;;;;;;;1.10;1.00;;;11.00;99.90;;;;;;5110160;28;20047;-85
2022/04/05 11:09:33;;;;;;;1.88;1.52;;;10.90;99.90;;;;;;5103270;28;20043;-83
2022/04/05 11:12:02;;;;;;;1.63;1.25;;;11.00;99.90;;;;;;5112926;28;20669;-83
2022/04/05 11:14:42;;;;;;;1.63;1.52;;;11.20;99.90;;;;;;5112210;28;20046;-83
2022/04/05 11:17:14;;;;;;;2.28;1.40;;;11.10;99.90;;;;;;5114189;27;20047;-82
2022/04/05 11:19:43;;;;;;;2.10;1.73;;;10.80;99.90;;;;;;5102413;27;20043;-83
2022/04/05 11:22:20;;;;;;;1.52;1.30;;;10.90;99.90;;;;;;5104662;28;20039;-87
2022/04/05 11:24:54;;;;;;;2.40;1.45;;;11.00;99.90;;;;;;5103245;28;20361;-81
2022/04/05 11:27:28;;;;;;;1.73;1.42;;;11.00;99.90;;;;;;5100189;28;20382;-82
2022/04/05 11:30:27;;;;;;;3.00;2.17;;;11.20;99.90;;;;;;5101930;28;20393;-82
2022/04/05 11:33:18;;;;;;;1.88;1.42;;;11.30;99.90;;;;;;5098375;28;20044;-83
2022/04/05 11:35:46;;;;;;;;;;;11.00;99.90;;;;;;5102541;28;20066;-81
2022/04/05 11:38:27;;;;;;;2.78;2.10;;;10.80;99.90;;;;;;5096990;28;20361;-82
2022/04/05 11:41:00;;;;;;;1.85;1.70;;;11.00;99.90;;;;;;5100413;27;20125;-83
2022/04/05 11:43:46;;;;;;;2.75;2.47;;;10.90;99.90;;;;;;5102862;28;20043;-81
2022/04/05 11:46:20;;;;;;;2.13;1.92;;;11.20;99.90;;;;;;5101296;28;20039;-81
2022/04/05 11:48:51;;;;;;;2.78;2.22;;;11.20;99.90;;;;;;5103869;28;20093;-82
2022/04/05 11:51:19;;;;;;;3.47;2.97;;;11.30;99.90;;;;;;5101831;28;20864;-82
2022/04/05 11:53:46;;;;;;;3.60;3.30;;;11.40;99.90;;;;;;5099907;28;20371;-82
2022/04/05 11:56:13;;;;;;;3.45;3.15;;;11.20;99.90;;;;;;5085276;28;20043;-83
2022/04/05 11:58:42;;;;;;;2.65;2.45;;;11.30;99.90;;;;;;5100624;28;20040;-82
2022/04/05 12:01:10;;;;;;;4.47;3.40;;;11.30;99.90;;;;;;5102268;28;20092;-82
2022/04/05 12:03:56;;;;;;;4.47;3.92;;;11.10;99.90;;;;;;5100637;28;20448;-82
2022/04/05 12:06:29;;;;;;;3.83;3.42;;;11.10;99.90;;;;;;5098843;28;20043;-82
2022/04/05 12:08:57;;;;;;;4.30;3.90;;;11.20;99.90;;;;;;5078776;28;20533;-82
2022/04/05 12:11:27;;;;;;;5.82;3.92;;;11.20;99.90;;;;;;5118201;27;20074;-81
2022/04/05 12:14:00;;;;;;;4.97;3.42;;;11.30;99.90;;;;;;5101286;28;20036;-83
2022/04/05 12:16:46;;;;;;;5.82;3.72;;;11.30;99.90;;;;;;5099049;28;20629;-82
2022/04/05 12:19:21;;;;;;;5.95;4.00;;;11.50;99.90;;;;;;5101262;28;20036;-83
2022/04/05 12:21:55;;;;;;;5.95;4.10;;;11.70;99.90;;;;;;5103129;27;20055;-81
2022/04/05 12:24:21;;;;;;;6.07;4.68;;;11.60;99.90;;;;;;5115906;27;20059;-82
2022/04/05 12:26:47;;;;;;;5.78;4.28;;;11.30;99.90;;;;;;5101507;28;20036;-82
2022/04/05 12:29:13;;;;;;;4.80;4.18;;;11.10;99.90;;;;;;5100689;28;20096;-85
2022/04/05 12:31:38;;;;;;;9.20;4.57;;;11.00;99.90;;;;;;5103481;27;20463;-80
2022/04/05 12:34:06;;;;;;;6.80;4.47;;;11.00;99.90;;;;;;5105519;28;20048;-84
2022/04/05 12:36:36;;;;;;;4.82;4.30;;;10.90;99.90;;;;;;5110441;28;20031;-86
2022/04/05 12:39:07;;;;;;;6.60;3.78;;;10.90;99.90;;;;;;5106915;28;20161;-86
2022/04/05 12:41:40;;;;;;;8.25;4.45;;;10.90;99.90;;;;;;5110981;28;20059;-84
2022/04/05 12:44:08;;;;;;;10.02;3.72;;;10.60;99.90;;;;;;5111187;28;20351;-86
2022/04/05 12:46:51;;;;;;;6.78;3.42;;;10.60;99.90;;;;;;5105804;28;20649;-88
2022/04/05 12:49:27;;;;;;;13.05;6.78;;;10.50;99.90;;;;;;5102990;27;20050;-86
2022/04/05 12:52:06;;;;;;;9.50;5.97;;;10.40;99.90;;;;;;5096611;28;20575;-88
2022/04/05 12:54:34;;;;;;;15.55;7.03;;;10.50;99.90;;;;;;5098206;28;20051;-84
2022/04/05 12:57:32;;;;;;;12.35;6.75;;;10.60;99.90;;;;;;5100354;28;20145;-81